Time;durP1;ratioP1;P1;durP2;ratioP2;P2;SDS_P1;SDS_P2;PMS_P1;PMS_P2;Temp;Humidity;BMP_temperature;BMP_pressure;BME280_temperature;BME280_humidity;BME280_pressure;Samples;Min_cycle;Max_cycle;Signal;HPM_P1;HPM_P2
2023/07/26 00:02:11;;;;;;;9.43;9.13;;;13.60;99.90;;;;;;5026184;28;21072;-66
2023/07/26 00:04:38;;;;;;;9.10;8.80;;;13.60;99.90;;;;;;5020274;28;20468;-68
2023/07/26 00:07:06;;;;;;;8.93;8.63;;;13.60;99.90;;;;;;5021913;28;20468;-67
2023/07/26 00:09:33;;;;;;;9.50;9.20;;;13.70;99.90;;;;;;5023844;28;20491;-67
2023/07/26 00:12:02;;;;;;;8.30;8.10;;;13.70;99.90;;;;;;5023424;28;20488;-66
2023/07/26 00:14:29;;;;;;;7.90;7.70;;;13.70;99.90;;;;;;5027763;28;20471;-66
2023/07/26 00:16:57;;;;;;;8.57;8.27;;;13.70;99.90;;;;;;5009515;28;20492;-68
2023/07/26 00:19:24;;;;;;;8.80;8.50;;;13.70;99.90;;;;;;5004366;28;20465;-66
2023/07/26 00:21:51;;;;;;;7.80;7.60;;;13.70;99.90;;;;;;5010562;28;20473;-65
2023/07/26 00:24:18;;;;;;;8.07;7.87;;;13.70;99.90;;;;;;5001358;28;20474;-67
2023/07/26 00:26:45;;;;;;;8.63;8.33;;;13.70;99.90;;;;;;5018950;28;20460;-65
2023/07/26 00:29:13;;;;;;;8.30;8.00;;;13.70;99.90;;;;;;5005903;28;20461;-65
2023/07/26 00:31:40;;;;;;;8.50;8.20;;;13.70;99.90;;;;;;5010651;28;20473;-64
2023/07/26 00:34:07;;;;;;;7.80;7.60;;;13.70;99.90;;;;;;5004653;28;20477;-66
2023/07/26 00:36:34;;;;;;;8.00;7.80;;;13.70;99.90;;;;;;5016580;28;20472;-66
2023/07/26 00:39:03;;;;;;;7.60;7.40;;;13.60;99.90;;;;;;5006599;28;20472;-67
2023/07/26 00:41:30;;;;;;;8.00;7.80;;;13.60;99.90;;;;;;5004603;28;20469;-67
2023/07/26 00:43:57;;;;;;;7.60;7.40;;;13.60;99.90;;;;;;5008968;28;20808;-65
2023/07/26 00:46:26;;;;;;;7.90;7.70;;;13.60;99.90;;;;;;5008193;28;20886;-66
2023/07/26 00:48:55;;;;;;;8.23;7.93;;;13.60;99.90;;;;;;5001060;28;20520;-65
2023/07/26 00:51:23;;;;;;;7.70;7.50;;;13.70;99.90;;;;;;5004061;28;20470;-67
2023/07/26 00:53:51;;;;;;;7.60;7.40;;;13.80;99.90;;;;;;5007510;28;21007;-67
2023/07/26 00:56:18;;;;;;;7.40;7.20;;;13.80;99.90;;;;;;5005545;28;20465;-66
2023/07/26 00:58:47;;;;;;;7.80;7.57;;;13.70;99.90;;;;;;5014425;28;20472;-68
2023/07/26 01:01:14;;;;;;;8.13;7.83;;;13.60;99.90;;;;;;5018549;28;20937;-67
2023/07/26 01:03:43;;;;;;;7.20;7.00;;;13.70;99.90;;;;;;5007434;28;20461;-67
2023/07/26 01:06:17;;;;;;;8.40;8.10;;;13.70;99.90;;;;;;5008842;28;20470;-67
2023/07/26 01:08:52;;;;;;;8.20;7.90;;;13.70;99.90;;;;;;5002075;28;20468;-67
2023/07/26 01:11:25;;;;;;;7.40;7.20;;;13.80;99.90;;;;;;5010426;28;20461;-66
2023/07/26 01:13:57;;;;;;;7.60;7.40;;;13.80;99.90;;;;;;5011691;28;20497;-66
2023/07/26 01:16:26;;;;;;;7.50;7.30;;;13.90;99.90;;;;;;5024168;28;20488;-67
2023/07/26 01:18:55;;;;;;;7.60;7.40;;;13.80;99.90;;;;;;5024350;28;20468;-67
2023/07/26 01:21:23;;;;;;;7.67;7.43;;;13.70;99.90;;;;;;5029269;28;20960;-67
2023/07/26 01:23:51;;;;;;;7.90;7.60;;;13.60;99.90;;;;;;5030764;28;20495;-66
2023/07/26 01:26:18;;;;;;;8.20;7.90;;;13.70;99.90;;;;;;5023065;28;20956;-65
2023/07/26 01:28:45;;;;;;;8.70;8.40;;;13.70;99.90;;;;;;5027509;28;20907;-65
2023/07/26 01:31:13;;;;;;;7.60;7.40;;;13.80;99.90;;;;;;5030530;28;20538;-67
2023/07/26 01:33:42;;;;;;;8.03;7.73;;;13.80;99.90;;;;;;5021274;28;20491;-67
2023/07/26 01:36:10;;;;;;;7.97;7.67;;;13.80;99.90;;;;;;5027132;28;20464;-65
2023/07/26 01:38:39;;;;;;;8.30;8.00;;;13.80;99.90;;;;;;5030449;28;20460;-67
2023/07/26 01:41:08;;;;;;;8.00;7.80;;;13.90;99.90;;;;;;5023602;28;20881;-66
2023/07/26 01:43:35;;;;;;;8.00;7.80;;;13.90;99.90;;;;;;5025364;28;20472;-66
2023/07/26 01:46:02;;;;;;;8.37;8.07;;;13.90;99.90;;;;;;5023454;28;20468;-67
2023/07/26 01:48:29;;;;;;;8.00;7.80;;;14.00;99.90;;;;;;5029927;28;20475;-67
2023/07/26 01:50:56;;;;;;;8.60;8.30;;;13.90;99.90;;;;;;5023032;28;20473;-66
2023/07/26 01:53:23;;;;;;;8.27;7.97;;;13.90;99.90;;;;;;5029735;28;20481;-66
2023/07/26 01:55:50;;;;;;;8.70;8.40;;;14.00;99.90;;;;;;5030131;28;20516;-65
2023/07/26 01:58:18;;;;;;;8.23;7.93;;;14.00;99.90;;;;;;5024162;28;20527;-67
2023/07/26 02:00:45;;;;;;;8.40;8.10;;;14.00;99.90;;;;;;5027831;28;20479;-67
2023/07/26 02:03:12;;;;;;;8.80;8.50;;;14.00;99.90;;;;;;5022041;28;20465;-65
2023/07/26 02:05:45;;;;;;;8.50;8.20;;;14.10;99.90;;;;;;5029812;28;20951;-67
2023/07/26 02:08:11;;;;;;;8.00;7.80;;;14.10;99.90;;;;;;5028907;28;20474;-67
2023/07/26 02:10:39;;;;;;;8.40;8.10;;;14.10;99.90;;;;;;5025003;28;20492;-67
2023/07/26 02:13:06;;;;;;;8.13;7.83;;;14.10;99.90;;;;;;5022700;28;20499;-68
2023/07/26 02:15:34;;;;;;;8.87;8.40;;;14.00;99.90;;;;;;5024193;28;20485;-67
2023/07/26 02:18:01;;;;;;;7.90;7.60;;;14.00;99.90;;;;;;5013173;28;20465;-67
2023/07/26 02:20:28;;;;;;;7.50;7.30;;;14.00;99.90;;;;;;5014139;28;20473;-65
2023/07/26 02:22:56;;;;;;;7.30;7.10;;;14.00;99.90;;;;;;5018787;28;20765;-66
2023/07/26 02:25:23;;;;;;;7.50;7.30;;;14.00;99.90;;;;;;5004000;28;20472;-66
2023/07/26 02:27:50;;;;;;;7.33;7.13;;;14.00;99.90;;;;;;5023492;28;20473;-65
2023/07/26 02:30:17;;;;;;;7.53;7.33;;;14.00;99.90;;;;;;5012401;28;20874;-68
2023/07/26 02:32:45;;;;;;;8.57;8.17;;;14.00;99.90;;;;;;5009582;28;20493;-67
2023/07/26 02:35:12;;;;;;;7.23;7.03;;;14.10;99.90;;;;;;5017856;28;20457;-65
2023/07/26 02:37:39;;;;;;;7.53;7.33;;;14.00;99.90;;;;;;5015900;28;20580;-67
2023/07/26 02:40:07;;;;;;;8.47;8.10;;;14.00;99.90;;;;;;5011909;28;20460;-65
2023/07/26 02:42:34;;;;;;;8.07;7.87;;;14.10;99.90;;;;;;5018274;28;20936;-67
2023/07/26 02:45:01;;;;;;;8.07;7.67;;;14.10;99.90;;;;;;5010901;28;20815;-67
2023/07/26 02:47:31;;;;;;;8.50;8.20;;;14.10;99.90;;;;;;5018927;28;20461;-65
2023/07/26 02:50:01;;;;;;;7.10;6.90;;;14.10;99.90;;;;;;5014294;28;20869;-68
2023/07/26 02:52:28;;;;;;;7.93;7.63;;;14.10;99.90;;;;;;5011703;28;20789;-66
2023/07/26 02:54:55;;;;;;;7.57;7.37;;;14.10;99.90;;;;;;5018794;28;20454;-67
2023/07/26 02:57:24;;;;;;;7.83;7.53;;;14.00;99.90;;;;;;5021785;28;21947;-66
2023/07/26 02:59:51;;;;;;;7.97;7.67;;;14.00;99.90;;;;;;5016983;28;20456;-65
2023/07/26 03:02:18;;;;;;;7.60;7.40;;;14.00;99.90;;;;;;5002539;28;20515;-66
2023/07/26 03:04:45;;;;;;;8.00;7.70;;;14.10;99.90;;;;;;5013333;28;20472;-66
2023/07/26 03:07:13;;;;;;;7.30;7.10;;;14.10;99.90;;;;;;5022029;28;20458;-67
2023/07/26 03:09:40;;;;;;;6.90;6.70;;;14.10;99.90;;;;;;5019666;28;20466;-67
2023/07/26 03:12:08;;;;;;;7.20;7.00;;;14.10;99.90;;;;;;5013297;28;20465;-68
2023/07/26 03:14:40;;;;;;;6.90;6.70;;;14.10;99.90;;;;;;5007264;28;20488;-67
2023/07/26 03:17:08;;;;;;;7.70;7.50;;;14.10;99.90;;;;;;5015188;28;20471;-67
2023/07/26 03:19:35;;;;;;;8.07;7.87;;;14.00;99.90;;;;;;5008032;28;20553;-68
2023/07/26 03:22:02;;;;;;;8.03;7.83;;;13.90;99.90;;;;;;5016862;28;20452;-67
2023/07/26 03:24:30;;;;;;;8.20;7.90;;;13.70;99.90;;;;;;5020336;28;20472;-67
2023/07/26 03:26:57;;;;;;;7.93;7.53;;;13.70;99.90;;;;;;5017201;28;21173;-68
2023/07/26 03:29:24;;;;;;;7.70;7.40;;;13.60;99.90;;;;;;5011739;28;20473;-66
2023/07/26 03:31:51;;;;;;;15.13;14.33;;;13.50;99.90;;;;;;5005466;28;20471;-66
2023/07/26 03:34:18;;;;;;;18.40;17.40;;;13.40;99.90;;;;;;5011562;28;20492;-67
2023/07/26 03:36:45;;;;;;;17.00;16.20;;;13.00;99.90;;;;;;5019096;28;20473;-67
2023/07/26 03:39:13;;;;;;;17.27;16.37;;;12.80;99.90;;;;;;5018870;28;20515;-67
2023/07/26 03:41:41;;;;;;;18.53;17.53;;;12.70;99.90;;;;;;5013407;28;20513;-66
2023/07/26 03:44:08;;;;;;;16.70;15.90;;;12.60;99.90;;;;;;5018432;28;20546;-67
2023/07/26 03:46:36;;;;;;;15.70;15.00;;;12.60;99.90;;;;;;5009748;28;20458;-67
2023/07/26 03:49:03;;;;;;;15.87;15.17;;;12.50;99.90;;;;;;5009832;28;20994;-67
2023/07/26 03:51:29;;;;;;;16.10;15.40;;;12.40;99.90;;;;;;5019961;28;20461;-66
2023/07/26 03:53:56;;;;;;;15.90;15.20;;;12.50;99.90;;;;;;5011746;28;20484;-67
2023/07/26 03:56:23;;;;;;;16.03;15.33;;;12.60;99.90;;;;;;5015896;28;20461;-66
2023/07/26 03:58:52;;;;;;;16.20;15.50;;;12.50;99.90;;;;;;5006780;28;20990;-67
2023/07/26 04:01:19;;;;;;;16.40;15.70;;;12.40;99.90;;;;;;5014374;28;20569;-66
2023/07/26 04:03:46;;;;;;;16.97;16.17;;;12.40;99.90;;;;;;5011870;28;20468;-65
2023/07/26 04:06:13;;;;;;;17.30;16.50;;;12.40;99.90;;;;;;5017220;28;20461;-67
2023/07/26 04:08:41;;;;;;;16.87;16.07;;;12.40;99.90;;;;;;5007591;28;20469;-67
2023/07/26 04:11:08;;;;;;;17.17;16.37;;;12.40;99.90;;;;;;5014965;28;20453;-67
2023/07/26 04:13:35;;;;;;;17.40;16.60;;;12.40;99.90;;;;;;5019085;28;20481;-66
2023/07/26 04:16:13;;;;;;;18.33;17.43;;;12.40;99.90;;;;;;5013701;28;20909;-66
2023/07/26 04:18:40;;;;;;;16.87;16.07;;;12.40;99.90;;;;;;5016334;28;20484;-68
2023/07/26 04:21:11;;;;;;;17.90;17.10;;;12.40;99.90;;;;;;5005414;28;20470;-67
2023/07/26 04:23:38;;;;;;;17.30;16.50;;;12.40;99.90;;;;;;5009342;28;20462;-67
2023/07/26 04:26:05;;;;;;;17.57;16.77;;;12.40;99.90;;;;;;5015914;28;21032;-66
2023/07/26 04:28:33;;;;;;;17.80;17.00;;;12.50;99.90;;;;;;5018008;28;20465;-66
2023/07/26 04:31:02;;;;;;;18.20;17.30;;;12.60;99.90;;;;;;5013037;28;20465;-65
2023/07/26 04:33:32;;;;;;;18.17;17.27;;;12.60;99.90;;;;;;5023088;28;20480;-66
2023/07/26 04:35:59;;;;;;;17.27;16.47;;;12.60;99.90;;;;;;5008380;28;20467;-66
2023/07/26 04:38:27;;;;;;;17.40;16.60;;;12.70;99.90;;;;;;5012449;28;20968;-67
2023/07/26 04:40:55;;;;;;;16.90;16.10;;;12.70;99.90;;;;;;5022104;28;20461;-66
2023/07/26 04:43:24;;;;;;;17.30;16.50;;;12.80;99.90;;;;;;5021863;28;21026;-66
2023/07/26 04:45:52;;;;;;;17.00;16.20;;;12.90;99.90;;;;;;5023791;28;20484;-67
2023/07/26 04:48:20;;;;;;;17.00;16.20;;;12.90;99.90;;;;;;5011435;28;20457;-66
2023/07/26 04:50:49;;;;;;;16.93;16.13;;;12.90;99.90;;;;;;5011756;28;20466;-66
2023/07/26 04:53:18;;;;;;;16.50;15.80;;;12.90;99.90;;;;;;5013861;28;20496;-67
2023/07/26 04:55:46;;;;;;;17.10;16.30;;;12.90;99.90;;;;;;5019710;28;20448;-66
2023/07/26 04:58:13;;;;;;;17.40;16.60;;;12.90;99.90;;;;;;5013630;28;20863;-67
2023/07/26 05:00:42;;;;;;;17.60;16.80;;;12.90;99.90;;;;;;5016885;28;20865;-67
2023/07/26 05:03:11;;;;;;;17.47;16.67;;;13.00;99.90;;;;;;5011343;28;20470;-67
2023/07/26 05:05:39;;;;;;;16.73;15.93;;;13.00;99.90;;;;;;5016111;28;20460;-66
2023/07/26 05:08:08;;;;;;;17.30;16.50;;;13.00;99.90;;;;;;5006391;28;20466;-66
2023/07/26 05:10:35;;;;;;;17.53;16.73;;;13.00;99.90;;;;;;5001141;28;20468;-65
2023/07/26 05:13:03;;;;;;;17.60;16.80;;;13.00;99.90;;;;;;5005728;28;20986;-66
2023/07/26 05:15:32;;;;;;;18.43;17.43;;;13.00;99.90;;;;;;5016318;28;20579;-67
2023/07/26 05:17:59;;;;;;;18.10;17.20;;;12.90;99.90;;;;;;5012416;28;20511;-67
2023/07/26 05:20:26;;;;;;;18.30;17.40;;;13.00;99.90;;;;;;5009625;28;20466;-65
2023/07/26 05:22:52;;;;;;;18.10;17.20;;;13.00;99.90;;;;;;5004741;28;20470;-67
2023/07/26 05:25:21;;;;;;;17.63;16.73;;;13.00;99.90;;;;;;5004770;28;20461;-66
2023/07/26 05:27:48;;;;;;;16.40;15.60;;;13.10;99.90;;;;;;5015096;28;20499;-67
2023/07/26 05:30:17;;;;;;;16.47;15.73;;;13.00;99.90;;;;;;5014764;28;20464;-66
2023/07/26 05:32:44;;;;;;;15.90;15.20;;;13.00;99.90;;;;;;5014775;28;20457;-65
2023/07/26 05:35:11;;;;;;;16.03;15.33;;;13.00;99.90;;;;;;5005776;28;20496;-67
2023/07/26 05:37:39;;;;;;;16.13;15.40;;;13.00;99.90;;;;;;5010951;28;20461;-66
2023/07/26 05:40:08;;;;;;;15.40;14.70;;;13.20;99.90;;;;;;5004767;28;20521;-66
2023/07/26 05:42:37;;;;;;;15.20;14.50;;;13.30;99.90;;;;;;5007193;28;20470;-66
2023/07/26 05:45:06;;;;;;;15.50;14.80;;;13.40;99.90;;;;;;5014598;28;20465;-66
2023/07/26 05:47:37;;;;;;;14.37;13.77;;;13.50;99.90;;;;;;5004029;28;20466;-66
2023/07/26 05:50:07;;;;;;;15.43;14.63;;;13.50;99.90;;;;;;5004865;28;20549;-65
2023/07/26 05:52:34;;;;;;;13.73;13.20;;;13.50;99.90;;;;;;5011942;28;20948;-65
2023/07/26 05:55:00;;;;;;;15.27;13.90;;;13.50;99.90;;;;;;5014198;28;20539;-66
2023/07/26 05:57:27;;;;;;;12.97;12.47;;;13.50;99.90;;;;;;5008439;28;20519;-66
2023/07/26 05:59:56;;;;;;;12.27;11.83;;;13.50;99.90;;;;;;5007342;28;20464;-65
2023/07/26 06:02:23;;;;;;;13.17;12.67;;;13.60;99.90;;;;;;5019548;28;20484;-67
2023/07/26 06:04:53;;;;;;;12.13;11.63;;;13.70;99.90;;;;;;5003988;28;20877;-66
2023/07/26 06:07:20;;;;;;;11.00;10.60;;;13.80;99.90;;;;;;5000445;28;21345;-67
2023/07/26 06:09:48;;;;;;;10.60;10.20;;;13.80;99.90;;;;;;5009821;28;20462;-67
2023/07/26 06:12:15;;;;;;;12.00;11.37;;;13.90;99.90;;;;;;5009219;28;20462;-66
2023/07/26 06:14:42;;;;;;;11.33;10.67;;;13.90;99.90;;;;;;5008045;28;21109;-67
2023/07/26 06:17:12;;;;;;;10.17;9.77;;;14.00;99.90;;;;;;5022833;28;20465;-66
2023/07/26 06:19:39;;;;;;;9.20;8.90;;;14.00;99.90;;;;;;5022459;28;20543;-66
2023/07/26 06:22:06;;;;;;;10.70;10.20;;;14.10;99.90;;;;;;5023622;28;20910;-65
2023/07/26 06:24:33;;;;;;;8.97;8.67;;;14.10;99.90;;;;;;5025658;28;20501;-67
2023/07/26 06:27:00;;;;;;;9.80;9.50;;;14.20;99.90;;;;;;5025736;28;20465;-67
2023/07/26 06:29:28;;;;;;;9.63;9.23;;;14.30;99.90;;;;;;5024394;28;20468;-67
2023/07/26 06:31:55;;;;;;;9.20;8.90;;;14.40;99.90;;;;;;5028729;28;20868;-66
2023/07/26 06:34:24;;;;;;;9.37;8.90;;;14.50;99.90;;;;;;5024215;28;21245;-66
2023/07/26 06:36:51;;;;;;;11.27;10.67;;;14.60;99.90;;;;;;5022312;28;20464;-66
2023/07/26 06:39:19;;;;;;;9.50;9.17;;;14.70;99.90;;;;;;5027654;28;20464;-66
2023/07/26 06:41:46;;;;;;;9.80;9.47;;;14.70;99.90;;;;;;5028601;28;20503;-66
2023/07/26 06:44:13;;;;;;;9.47;9.07;;;14.70;99.90;;;;;;5029352;28;20460;-66
2023/07/26 06:46:40;;;;;;;11.33;10.80;;;14.60;99.90;;;;;;5019830;28;20970;-67
2023/07/26 06:49:08;;;;;;;11.00;10.50;;;14.70;99.90;;;;;;5028417;28;20519;-66
2023/07/26 06:51:37;;;;;;;20.03;12.10;;;14.70;99.90;;;;;;5022926;28;20457;-67
2023/07/26 06:54:04;;;;;;;10.10;9.70;;;14.80;99.90;;;;;;5024271;28;20532;-65
2023/07/26 06:56:29;;;;;;;11.60;10.90;;;14.80;99.90;;;;;;5027577;28;20465;-65
2023/07/26 06:58:57;;;;;;;9.63;9.23;;;15.00;99.90;;;;;;5020306;28;20476;-66
2023/07/26 07:01:23;;;;;;;8.87;8.57;;;15.10;99.90;;;;;;5026342;28;20222;-66
2023/07/26 07:03:51;;;;;;;9.70;9.30;;;15.10;99.90;;;;;;5024259;28;20449;-67
2023/07/26 07:06:20;;;;;;;9.77;9.27;;;15.20;99.90;;;;;;5021326;28;20495;-67
2023/07/26 07:08:48;;;;;;;8.83;8.53;;;15.40;99.90;;;;;;5028076;28;20468;-66
2023/07/26 07:11:15;;;;;;;12.00;11.10;;;15.50;99.90;;;;;;5027888;28;20461;-66
2023/07/26 07:13:42;;;;;;;11.57;10.73;;;15.80;99.90;;;;;;5025314;28;20471;-66
2023/07/26 07:16:10;;;;;;;8.90;8.60;;;15.80;99.90;;;;;;5013611;28;20493;-67
2023/07/26 07:18:37;;;;;;;9.13;8.83;;;15.80;99.90;;;;;;5022310;28;20475;-67
2023/07/26 07:21:03;;;;;;;12.20;11.57;;;15.90;99.90;;;;;;5021781;28;20472;-66
2023/07/26 07:23:31;;;;;;;12.27;11.13;;;16.00;99.90;;;;;;5026132;28;20835;-65
2023/07/26 07:26:00;;;;;;;10.43;10.03;;;16.10;99.90;;;;;;5027016;28;20456;-67
2023/07/26 07:28:27;;;;;;;12.60;11.87;;;16.30;99.90;;;;;;5020462;28;20901;-66
2023/07/26 07:30:54;;;;;;;11.83;11.33;;;16.60;99.90;;;;;;5027859;28;20867;-66
2023/07/26 07:33:21;;;;;;;13.37;12.67;;;16.70;99.90;;;;;;5026595;28;20445;-66
2023/07/26 07:35:48;;;;;;;13.57;12.83;;;16.80;99.90;;;;;;5023138;28;20558;-66
2023/07/26 07:38:16;;;;;;;15.47;14.27;;;16.80;99.90;;;;;;5022665;28;20464;-65
2023/07/26 07:40:42;;;;;;;12.07;11.57;;;16.90;99.90;;;;;;5022287;28;20468;-66
2023/07/26 07:43:10;;;;;;;13.33;12.73;;;17.00;99.90;;;;;;5025010;28;20467;-65
2023/07/26 07:45:41;;;;;;;15.47;14.30;;;17.20;99.90;;;;;;5020189;28;20481;-66
2023/07/26 07:48:08;;;;;;;12.30;11.70;;;17.40;99.90;;;;;;5021367;28;20475;-65
2023/07/26 07:50:37;;;;;;;16.60;15.50;;;17.70;99.90;;;;;;5028367;28;20472;-65
2023/07/26 07:53:04;;;;;;;13.40;12.63;;;17.80;99.90;;;;;;5025190;28;20819;-65
2023/07/26 07:55:32;;;;;;;14.73;14.03;;;17.90;99.90;;;;;;5024037;28;20488;-66
2023/07/26 07:58:01;;;;;;;13.03;12.43;;;18.30;99.90;;;;;;5027650;28;20457;-67
2023/07/26 08:00:30;;;;;;;16.57;15.57;;;18.60;99.90;;;;;;5026347;28;20472;-66
2023/07/26 08:02:56;;;;;;;14.17;13.47;;;18.60;99.90;;;;;;5017804;28;20465;-66
2023/07/26 08:05:24;;;;;;;15.83;14.90;;;18.70;99.90;;;;;;5008608;28;20473;-66
2023/07/26 08:07:54;;;;;;;14.70;14.00;;;18.80;99.90;;;;;;5016994;28;20460;-67
2023/07/26 08:10:20;;;;;;;17.80;16.70;;;19.10;99.90;;;;;;5025119;28;20464;-66
2023/07/26 08:12:47;;;;;;;15.57;14.77;;;19.30;99.90;;;;;;5018369;28;20465;-66
2023/07/26 08:15:15;;;;;;;16.73;15.83;;;19.20;99.90;;;;;;5020855;28;20491;-67
2023/07/26 08:17:44;;;;;;;14.80;14.10;;;19.50;99.90;;;;;;5001336;28;20454;-66
2023/07/26 08:20:13;;;;;;;15.03;14.13;;;19.50;99.90;;;;;;5008840;28;20910;-66
2023/07/26 08:22:40;;;;;;;15.63;14.83;;;19.60;99.90;;;;;;5009001;28;20493;-67
2023/07/26 08:25:08;;;;;;;14.67;14.07;;;19.70;99.90;;;;;;5006443;28;20465;-67
2023/07/26 08:27:36;;;;;;;14.30;13.70;;;20.00;99.90;;;;;;4998911;28;20717;-67
2023/07/26 08:30:03;;;;;;;15.57;14.87;;;20.00;99.90;;;;;;5007620;28;20604;-67
2023/07/26 08:32:30;;;;;;;15.80;15.00;;;19.90;99.90;;;;;;5009308;28;20520;-66
2023/07/26 08:34:58;;;;;;;15.17;14.47;;;20.10;99.90;;;;;;4999753;28;20922;-66
2023/07/26 08:37:25;;;;;;;15.90;15.10;;;20.30;99.90;;;;;;5010542;28;20839;-66
2023/07/26 08:39:52;;;;;;;15.43;14.73;;;20.60;99.90;;;;;;5004653;28;20465;-65
2023/07/26 08:42:19;;;;;;;16.30;15.50;;;20.70;99.90;;;;;;5010940;28;20457;-66
2023/07/26 08:44:50;;;;;;;15.57;14.87;;;20.70;99.90;;;;;;5003673;28;20462;-65
2023/07/26 08:47:19;;;;;;;18.13;16.50;;;20.70;99.90;;;;;;5004055;28;20477;-67
2023/07/26 08:49:47;;;;;;;15.97;15.27;;;21.00;99.90;;;;;;5009876;28;20472;-67
2023/07/26 08:52:16;;;;;;;16.77;15.93;;;21.30;99.90;;;;;;4999560;28;20468;-67
2023/07/26 08:54:44;;;;;;;16.53;15.47;;;22.00;99.90;;;;;;5010274;28;20945;-67
2023/07/26 08:57:11;;;;;;;16.00;15.30;;;22.00;99.90;;;;;;5005095;28;20824;-66
2023/07/26 08:59:38;;;;;;;15.20;14.60;;;21.40;99.90;;;;;;4999368;28;20470;-66
2023/07/26 09:02:06;;;;;;;15.80;14.97;;;21.30;99.90;;;;;;5008002;28;20568;-66
2023/07/26 09:04:35;;;;;;;15.67;14.93;;;21.60;99.90;;;;;;5008485;28;20461;-65
2023/07/26 09:07:03;;;;;;;16.57;15.77;;;22.30;99.90;;;;;;5005950;28;20836;-65
2023/07/26 09:09:32;;;;;;;15.63;14.93;;;22.90;99.90;;;;;;5010185;28;20473;-66
2023/07/26 09:12:00;;;;;;;15.50;14.80;;;22.90;99.90;;;;;;5002993;28;20465;-67
2023/07/26 09:14:27;;;;;;;16.30;15.60;;;23.00;99.90;;;;;;5011585;28;20462;-67
2023/07/26 09:16:57;;;;;;;16.87;15.97;;;23.00;99.90;;;;;;5021125;28;20477;-67
2023/07/26 09:19:29;;;;;;;16.20;15.50;;;22.40;99.90;;;;;;5026711;28;20846;-66
2023/07/26 09:21:58;;;;;;;17.33;16.43;;;21.60;99.90;;;;;;5027747;28;20648;-67
2023/07/26 09:24:34;;;;;;;16.73;15.43;;;20.80;99.90;;;;;;5019047;28;20839;-67
2023/07/26 09:27:06;;;;;;;14.90;14.30;;;20.20;99.90;;;;;;5023283;28;20460;-66
2023/07/26 09:29:33;;;;;;;16.30;15.40;;;19.90;99.90;;;;;;5028139;28;20465;-66
2023/07/26 09:32:01;;;;;;;15.67;14.80;;;19.70;99.90;;;;;;5022632;28;20468;-66
2023/07/26 09:34:30;;;;;;;23.60;22.00;;;19.20;99.90;;;;;;5026908;28;20515;-65
2023/07/26 09:36:59;;;;;;;22.90;21.30;;;18.60;99.90;;;;;;5028621;28;20460;-66
2023/07/26 09:39:27;;;;;;;19.90;18.70;;;18.10;99.90;;;;;;5028628;28;20813;-66
2023/07/26 09:42:05;;;;;;;21.57;20.07;;;17.90;99.90;;;;;;5028624;28;20464;-66
2023/07/26 09:44:32;;;;;;;16.40;15.53;;;17.70;99.90;;;;;;5017160;28;20465;-65
2023/07/26 09:47:00;;;;;;;17.70;16.77;;;18.30;99.90;;;;;;5024536;28;20456;-67
2023/07/26 09:49:29;;;;;;;17.13;16.03;;;18.70;99.90;;;;;;5019020;28;20763;-66
2023/07/26 09:51:57;;;;;;;15.80;15.10;;;18.60;99.90;;;;;;5023446;28;20492;-66
2023/07/26 09:54:26;;;;;;;18.10;17.20;;;18.30;99.90;;;;;;5024144;28;20461;-65
2023/07/26 09:56:56;;;;;;;22.23;20.83;;;18.30;99.90;;;;;;5018780;28;21284;-66
2023/07/26 09:59:26;;;;;;;22.73;20.93;;;17.90;99.90;;;;;;5024555;28;20975;-66
2023/07/26 10:01:54;;;;;;;21.80;20.30;;;17.40;99.90;;;;;;5026066;28;20476;-66
2023/07/26 10:04:27;;;;;;;22.10;20.60;;;16.90;99.90;;;;;;5016878;28;20626;-67
2023/07/26 10:06:57;;;;;;;20.30;19.00;;;16.60;99.90;;;;;;5017349;28;20461;-66
2023/07/26 10:09:25;;;;;;;19.27;18.07;;;16.50;99.90;;;;;;5024285;28;20465;-67
2023/07/26 10:11:54;;;;;;;18.80;17.70;;;16.40;99.90;;;;;;5019235;28;20961;-66
2023/07/26 10:14:25;;;;;;;17.67;16.70;;;16.40;99.90;;;;;;5026334;28;20465;-67
2023/07/26 10:16:56;;;;;;;17.77;16.87;;;16.30;99.90;;;;;;5022848;28;20574;-67
2023/07/26 10:19:25;;;;;;;17.20;16.30;;;16.20;99.90;;;;;;5022555;28;21015;-67
2023/07/26 10:21:53;;;;;;;15.33;14.63;;;16.20;99.90;;;;;;5024757;28;21139;-66
2023/07/26 10:24:23;;;;;;;15.20;14.50;;;16.50;99.90;;;;;;5015865;28;20469;-67
2023/07/26 10:26:52;;;;;;;17.53;16.10;;;17.30;99.90;;;;;;5023444;28;20461;-65
2023/07/26 10:29:19;;;;;;;18.67;17.67;;;17.60;99.90;;;;;;5027151;28;21017;-68
2023/07/26 10:31:48;;;;;;;16.73;15.83;;;17.60;99.90;;;;;;5020808;28;20496;-67
2023/07/26 10:34:20;;;;;;;17.43;16.53;;;17.60;99.90;;;;;;5027965;28;20472;-67
2023/07/26 10:36:48;;;;;;;18.23;16.70;;;17.60;99.90;;;;;;5018633;28;20917;-66
2023/07/26 10:39:15;;;;;;;18.10;17.10;;;17.60;99.90;;;;;;5023735;28;20496;-67
2023/07/26 10:41:50;;;;;;;18.77;17.40;;;17.60;99.90;;;;;;5019497;28;20460;-67
2023/07/26 10:44:17;;;;;;;15.13;14.43;;;17.40;99.90;;;;;;5025457;28;20456;-67
2023/07/26 10:46:54;;;;;;;14.30;13.70;;;17.60;99.90;;;;;;5027441;28;20461;-67
2023/07/26 10:49:24;;;;;;;17.30;15.97;;;18.20;99.90;;;;;;5027316;28;20795;-67
2023/07/26 10:51:56;;;;;;;16.93;15.93;;;18.70;99.90;;;;;;5015195;28;20769;-66
2023/07/26 10:54:34;;;;;;;14.97;14.20;;;19.30;99.90;;;;;;5012117;28;20471;-67
2023/07/26 10:57:16;;;;;;;18.53;17.37;;;20.20;99.90;;;;;;5026429;28;20488;-66
2023/07/26 11:00:00;;;;;;;18.67;17.67;;;20.60;99.90;;;;;;5024354;28;20453;-66
2023/07/26 11:02:43;;;;;;;19.43;18.33;;;20.00;99.90;;;;;;5024378;28;21013;-65
2023/07/26 11:05:18;;;;;;;18.80;17.80;;;19.90;99.90;;;;;;5022502;28;20472;-67
2023/07/26 11:07:53;;;;;;;20.53;19.27;;;20.70;99.90;;;;;;5026093;28;20467;-65
2023/07/26 11:10:22;;;;;;;20.30;19.10;;;21.50;99.90;;;;;;5022199;28;20465;-66
2023/07/26 11:12:51;;;;;;;21.40;20.20;;;22.00;99.90;;;;;;5020013;28;20564;-65
2023/07/26 11:15:30;;;;;;;19.50;18.40;;;22.40;99.90;;;;;;5018636;28;20587;-66
2023/07/26 11:17:58;;;;;;;20.03;18.93;;;22.70;99.90;;;;;;5026871;28;20459;-66
2023/07/26 11:20:26;;;;;;;20.63;19.33;;;23.20;99.90;;;;;;5021892;28;20538;-67
2023/07/26 11:22:53;;;;;;;18.10;17.20;;;23.70;99.90;;;;;;5026918;28;20485;-67
2023/07/26 11:25:20;;;;;;;17.33;16.43;;;24.20;99.90;;;;;;5025551;28;20508;-67
2023/07/26 11:27:48;;;;;;;18.70;17.60;;;23.70;99.90;;;;;;5021894;28;20567;-67
2023/07/26 11:30:16;;;;;;;17.87;16.87;;;24.10;99.90;;;;;;5021043;28;20548;-67
2023/07/26 11:32:47;;;;;;;18.13;17.17;;;24.20;99.90;;;;;;5027170;28;20452;-66
2023/07/26 11:35:19;;;;;;;20.23;19.23;;;24.20;99.90;;;;;;5023563;28;20964;-67
2023/07/26 11:37:54;;;;;;;20.57;18.47;;;23.60;99.90;;;;;;5025807;28;20468;-67
2023/07/26 11:40:21;;;;;;;18.50;17.40;;;23.80;99.90;;;;;;5016631;28;20514;-66
2023/07/26 11:42:49;;;;;;;18.50;17.40;;;23.60;99.90;;;;;;5022245;28;20461;-67
2023/07/26 11:45:16;;;;;;;17.67;16.77;;;23.20;99.90;;;;;;5022575;28;20505;-67
2023/07/26 11:47:45;;;;;;;16.90;16.10;;;22.90;99.90;;;;;;5025918;28;20464;-65
2023/07/26 11:50:12;;;;;;;17.50;16.60;;;22.70;99.90;;;;;;5020238;28;20549;-67
2023/07/26 11:52:42;;;;;;;17.97;17.03;;;22.40;99.90;;;;;;5017921;28;20917;-67
2023/07/26 11:55:09;;;;;;;17.60;16.70;;;22.70;99.90;;;;;;5026064;28;20539;-66
2023/07/26 11:57:36;;;;;;;17.07;16.27;;;23.80;99.90;;;;;;5020270;28;20465;-66
2023/07/26 12:00:05;;;;;;;19.33;18.30;;;25.10;99.90;;;;;;5024142;28;20526;-66
2023/07/26 12:02:32;;;;;;;20.20;16.90;;;25.00;99.90;;;;;;5026774;28;20508;-66
2023/07/26 12:05:19;;;;;;;18.90;17.57;;;25.20;99.90;;;;;;5028401;28;20484;-66
2023/07/26 12:07:48;;;;;;;18.90;18.00;;;25.70;99.90;;;;;;5018491;28;20496;-66
2023/07/26 12:10:16;;;;;;;19.87;18.43;;;25.70;99.90;;;;;;5021171;28;20472;-67
2023/07/26 12:12:44;;;;;;;18.13;17.23;;;25.70;99.90;;;;;;5016042;28;20543;-67
2023/07/26 12:15:12;;;;;;;18.37;17.57;;;25.10;99.90;;;;;;5019711;28;20521;-68
2023/07/26 12:17:58;;;;;;;18.87;17.97;;;25.60;99.90;;;;;;5010146;28;20461;-66
2023/07/26 12:20:26;;;;;;;17.90;17.10;;;24.60;99.90;;;;;;4986624;28;20467;-68
2023/07/26 12:22:56;;;;;;;20.80;19.90;;;24.40;99.90;;;;;;5005271;28;20460;-67
2023/07/26 12:25:33;;;;;;;20.20;19.00;;;24.20;99.90;;;;;;5002173;28;20468;-67
2023/07/26 12:28:02;;;;;;;17.67;16.87;;;23.80;99.90;;;;;;5001224;28;20477;-68
2023/07/26 12:30:28;;;;;;;17.50;16.70;;;23.10;99.90;;;;;;4997701;28;20891;-67
2023/07/26 12:33:12;;;;;;;17.83;17.03;;;22.40;99.90;;;;;;5003290;28;20472;-66
2023/07/26 12:35:39;;;;;;;18.70;17.80;;;22.10;99.90;;;;;;5008984;28;20479;-67
2023/07/26 12:38:12;;;;;;;18.40;17.60;;;22.20;99.90;;;;;;5006096;28;20963;-67
2023/07/26 12:40:40;;;;;;;17.07;16.30;;;23.10;99.90;;;;;;5009640;28;20549;-67